Time;durP1;ratioP1;P1;durP2;ratioP2;P2;SDS_P1;SDS_P2;PMS_P1;PMS_P2;Temp;Humidity;BMP_temperature;BMP_pressure;BME280_temperature;BME280_humidity;BME280_pressure;Samples;Min_cycle;Max_cycle;Signal;HPM_P1;HPM_P2
2022/01/29 00:01:06;;;;;;;5.28;3.60;;;;;;;;;;5093758;28;20032;-47
2022/01/29 00:03:35;;;;;;;6.65;3.88;;;;;;;;;;5093500;28;20515;-47
2022/01/29 00:06:01;;;;;;;6.60;3.63;;;;;;;;;;5093895;28;20484;-46
2022/01/29 00:08:27;;;;;;;6.13;3.72;;;;;;;;;;5093569;28;20102;-47
2022/01/29 00:10:59;;;;;;;6.15;3.97;;;;;;;;;;5093502;28;20028;-47
2022/01/29 00:13:25;;;;;;;5.50;3.53;;;;;;;;;;5093799;28;20035;-47
2022/01/29 00:15:51;;;;;;;6.07;3.92;;;;;;;;;;5093470;28;20032;-46
2022/01/29 00:18:17;;;;;;;5.13;3.50;;;;;;;;;;5093411;28;20054;-47
2022/01/29 00:20:43;;;;;;;7.10;3.92;;;;;;;;;;5093152;28;20043;-46
2022/01/29 00:23:09;;;;;;;6.53;3.30;;;;;;;;;;5092631;28;20047;-43
2022/01/29 00:25:35;;;;;;;8.30;3.83;;;;;;;;;;5093093;28;20032;-43
2022/01/29 00:28:01;;;;;;;5.45;3.50;;;;;;;;;;5093207;28;20028;-43
2022/01/29 00:30:31;;;;;;;4.72;3.33;;;;;;;;;;5093230;28;20032;-42
2022/01/29 00:32:57;;;;;;;6.27;3.83;;;;;;;;;;5093458;28;20398;-43
2022/01/29 00:35:23;;;;;;;8.95;3.65;;;;;;;;;;5093156;28;20081;-42
2022/01/29 00:37:49;;;;;;;4.75;3.30;;;;;;;;;;5093146;28;20027;-43
2022/01/29 00:40:15;;;;;;;5.40;3.72;;;;;;;;;;5093037;28;20035;-46
2022/01/29 00:42:41;;;;;;;7.90;3.97;;;15.70;91.00;;;;;;5093027;28;20024;-46
2022/01/29 00:45:07;;;;;;;6.45;3.20;;;;;;;;;;5092899;28;20130;-47
2022/01/29 00:47:33;;;;;;;7.43;4.10;;;;;;;;;;5092960;28;20063;-47
2022/01/29 00:49:59;;;;;;;4.68;3.60;;;;;;;;;;5092865;28;20115;-46
2022/01/29 00:52:25;;;;;;;5.95;3.72;;;;;;;;;;5092851;28;20028;-47
2022/01/29 00:54:51;;;;;;;5.82;3.47;;;;;;;;;;5092870;28;20024;-48
2022/01/29 00:57:17;;;;;;;4.93;3.35;;;;;;;;;;5092765;28;20501;-47
2022/01/29 00:59:43;;;;;;;4.20;3.22;;;;;;;;;;5093077;28;20023;-47
2022/01/29 01:02:09;;;;;;;5.68;3.60;;;;;;;;;;5092887;28;20496;-48
2022/01/29 01:04:38;;;;;;;4.55;2.90;;;15.80;92.50;;;;;;5092408;28;20048;-48
2022/01/29 01:07:05;;;;;;;4.78;3.42;;;;;;;;;;5092923;28;20063;-46
2022/01/29 01:09:31;;;;;;;5.85;3.17;;;;;;;;;;5092605;28;20039;-47
2022/01/29 01:11:56;;;;;;;4.20;3.10;;;;;;;;;;5092634;28;20028;-46
2022/01/29 01:14:22;;;;;;;5.63;3.13;;;;;;;;;;5092521;28;20478;-47
2022/01/29 01:16:48;;;;;;;5.72;3.03;;;;;;;;;;5092550;28;20478;-43
2022/01/29 01:19:14;;;;;;;7.25;3.00;;;;;;;;;;5092552;28;20107;-42
2022/01/29 01:21:40;;;;;;;5.43;3.13;;;;;;;;;;5092499;28;20085;-43
2022/01/29 01:24:06;;;;;;;4.68;3.22;;;;;;;;;;5092429;28;20028;-43
2022/01/29 01:26:32;;;;;;;3.63;2.90;;;;;;;;;;5092341;28;20039;-42
2022/01/29 01:28:58;;;;;;;5.13;3.00;;;;;;;;;;5092401;28;20489;-42
2022/01/29 01:31:24;;;;;;;6.30;3.17;;;;;;;;;;5092420;28;20032;-43
2022/01/29 01:33:51;;;;;;;5.55;3.70;;;;;;;;;;5094830;28;20024;-42
2022/01/29 01:36:20;;;;;;;4.38;2.83;;;;;;;;;;5096815;28;20438;-43
2022/01/29 01:38:54;;;;;;;3.07;2.43;;;;;;;;;;5096828;28;20027;-43
2022/01/29 01:41:24;;;;;;;4.70;2.90;;;;;;;;;;5096735;28;20024;-42
2022/01/29 01:43:50;;;;;;;4.15;2.88;;;;;;;;;;5096444;28;20483;-43
2022/01/29 01:46:17;;;;;;;3.75;2.58;;;;;;;;;;5096258;28;20623;-43
2022/01/29 01:48:43;;;;;;;4.30;3.03;;;;;;;;;;5096325;28;20031;-42
2022/01/29 01:51:09;;;;;;;4.85;2.53;;;;;;;;;;5096303;28;20115;-43
2022/01/29 01:53:35;;;;;;;3.50;2.60;;;;;;;;;;5096267;28;20063;-47
2022/01/29 01:56:01;;;;;;;2.72;2.17;;;;;;;;;;5096261;28;20036;-47
2022/01/29 01:58:27;;;;;;;5.47;2.53;;;;;;;;;;5096170;28;20035;-48
2022/01/29 02:00:53;;;;;;;2.80;2.17;;;;;;;;;;5096078;28;20028;-46
2022/01/29 02:03:19;;;;;;;2.92;2.10;;;;;;;;;;5095781;28;20070;-47
2022/01/29 02:05:45;;;;;;;4.07;2.28;;;;;;;;;;5095944;28;20043;-46
2022/01/29 02:08:14;;;;;;;2.63;2.22;;;;;;;;;;5096305;28;20381;-46
2022/01/29 02:10:39;;;;;;;2.90;2.17;;;;;;;;;;5095869;28;20050;-47
2022/01/29 02:13:06;;;;;;;4.47;2.33;;;;;;;;;;5095986;28;20051;-46
2022/01/29 02:15:32;;;;;;;2.80;1.90;;;;;;;;;;5095790;28;20046;-46
2022/01/29 02:17:58;;;;;;;3.67;2.50;;;;;;;;;;5096033;28;20036;-46
2022/01/29 02:20:28;;;;;;;2.35;2.15;;;15.50;92.40;;;;;;5095932;28;20034;-47
2022/01/29 02:22:54;;;;;;;;;;;15.50;92.60;;;;;;5096151;28;20024;-46
2022/01/29 02:25:42;;;;;;;3.63;2.17;;;15.50;89.40;;;;;;5095867;28;19919;-48
2022/01/29 02:28:08;;;;;;;2.72;1.73;;;;;;;;;;5095594;28;20107;-46
2022/01/29 02:30:35;;;;;;;3.33;2.20;;;15.50;90.60;;;;;;5095672;28;20047;-43
2022/01/29 02:33:05;;;;;;;4.82;2.38;;;15.50;92.20;;;;;;5095572;28;20470;-43
2022/01/29 02:35:31;;;;;;;3.00;1.70;;;;;;;;;;5095702;28;20024;-44
2022/01/29 02:37:57;;;;;;;2.60;2.13;;;;;;;;;;5095397;28;20032;-43
2022/01/29 02:40:24;;;;;;;2.05;1.73;;;;;;;;;;5095390;28;20028;-43
2022/01/29 02:42:55;;;;;;;3.15;1.80;;;15.50;92.10;;;;;;5095213;28;20044;-43
2022/01/29 02:45:21;;;;;;;2.83;1.77;;;;;;;;;;5094307;28;20185;-42
2022/01/29 02:47:47;;;;;;;3.30;1.98;;;;;;;;;;5095208;28;20036;-42
2022/01/29 02:50:13;;;;;;;2.90;1.90;;;;;;;;;;5095252;28;20024;-46
2022/01/29 02:52:39;;;;;;;2.40;1.73;;;;;;;;;;5095353;28;20024;-47
2022/01/29 02:55:06;;;;;;;3.67;1.70;;;15.40;91.70;;;;;;5095345;28;20039;-47
2022/01/29 02:57:32;;;;;;;5.78;2.05;;;;;;;;;;5095255;28;20024;-46
2022/01/29 03:00:00;;;;;;;3.40;1.80;;;;;;;;;;5094986;28;20032;-46
2022/01/29 03:02:28;;;;;;;3.38;2.00;;;15.40;89.00;;;;;;5094851;28;20081;-46
2022/01/29 03:04:56;;;;;;;2.60;1.70;;;;;;;;;;5094614;28;20559;-46
2022/01/29 03:07:22;;;;;;;2.97;2.10;;;;;;;;;;5094940;28;20447;-46
2022/01/29 03:09:48;;;;;;;2.72;1.58;;;;;;;;;;5095111;28;20428;-46
2022/01/29 03:12:14;;;;;;;1.95;1.50;;;;;;;;;;5094814;28;20028;-47
2022/01/29 03:14:40;;;;;;;3.92;1.80;;;;;;;;;;5094712;28;20497;-46
2022/01/29 03:17:06;;;;;;;4.32;1.70;;;;;;;;;;5094674;28;20036;-48
2022/01/29 03:19:32;;;;;;;2.15;1.40;;;;;;;;;;5094586;28;20028;-46
2022/01/29 03:21:58;;;;;;;2.63;1.60;;;;;;;;;;5094575;28;20028;-46
2022/01/29 03:24:25;;;;;;;2.85;1.50;;;;;;;;;;5094590;28;20488;-47
2022/01/29 03:26:51;;;;;;;3.15;1.80;;;;;;;;;;5094460;28;20085;-46
2022/01/29 03:29:17;;;;;;;2.88;1.58;;;;;;;;;;5094434;28;20103;-47
2022/01/29 03:31:43;;;;;;;1.92;1.60;;;;;;;;;;5094403;28;20031;-46
2022/01/29 03:34:09;;;;;;;2.45;1.60;;;;;;;;;;5094372;28;20020;-46
2022/01/29 03:36:35;;;;;;;2.90;1.52;;;;;;;;;;5094275;28;20035;-46
2022/01/29 03:39:01;;;;;;;2.88;1.73;;;;;;;;;;5094182;28;20030;-46
2022/01/29 03:41:27;;;;;;;2.72;1.52;;;;;;;;;;5094100;28;20470;-47
2022/01/29 03:43:55;;;;;;;5.82;1.70;;;;;;;;;;5094117;28;20035;-46
2022/01/29 03:46:21;;;;;;;3.13;1.40;;;;;;;;;;5094337;28;20036;-47
2022/01/29 03:48:47;;;;;;;2.83;1.67;;;;;;;;;;5094022;28;20363;-47
2022/01/29 03:51:13;;;;;;;4.25;1.40;;;;;;;;;;5094048;28;20059;-46
2022/01/29 03:53:39;;;;;;;2.22;1.20;;;;;;;;;;5093922;28;20024;-46
2022/01/29 03:56:05;;;;;;;3.15;1.48;;;;;;;;;;5092369;28;20035;-48
2022/01/29 03:58:31;;;;;;;2.85;1.40;;;;;;;;;;5093874;28;20024;-46
2022/01/29 04:00:57;;;;;;;3.53;1.48;;;;;;;;;;5093813;28;20501;-46
2022/01/29 04:03:23;;;;;;;2.25;1.10;;;;;;;;;;5093552;28;20506;-42
2022/01/29 04:05:49;;;;;;;2.95;1.83;;;;;;;;;;5093634;28;20531;-43
2022/01/29 04:08:17;;;;;;;2.38;1.55;;;;;;;;;;5093640;28;20024;-43
2022/01/29 04:10:44;;;;;;;2.90;1.55;;;;;;;;;;5093810;28;20028;-43
2022/01/29 04:13:12;;;;;;;2.83;1.58;;;;;;;;;;5092243;28;20162;-44
2022/01/29 04:15:38;;;;;;;1.85;1.27;;;;;;;;;;5093480;28;20028;-42
2022/01/29 04:18:04;;;;;;;2.25;1.20;;;;;;;;;;5093442;28;20475;-43
2022/01/29 04:20:30;;;;;;;1.85;1.23;;;;;;;;;;5093710;28;20099;-47
2022/01/29 04:22:56;;;;;;;2.72;1.40;;;;;;;;;;5093425;28;20032;-46
2022/01/29 04:25:23;;;;;;;2.05;1.20;;;;;;;;;;5093325;28;20100;-47
2022/01/29 04:27:49;;;;;;;3.42;1.48;;;;;;;;;;5093313;28;20043;-47
2022/01/29 04:30:27;;;;;;;2.70;1.40;;;;;;;;;;5093248;28;20024;-48
2022/01/29 04:35:20;;;;;;;2.55;1.30;;;15.20;91.00;;;;;;5093140;28;20421;-46
2022/01/29 04:37:47;;;;;;;2.40;1.15;;;15.20;92.00;;;;;;5093168;28;20024;-46
2022/01/29 04:40:13;;;;;;;4.20;1.10;;;;;;;;;;5093129;28;20485;-43
2022/01/29 04:42:39;;;;;;;1.73;1.20;;;;;;;;;;5093082;28;20115;-42
2022/01/29 04:45:05;;;;;;;2.72;1.08;;;;;;;;;;5092945;28;20115;-43
2022/01/29 04:47:31;;;;;;;2.03;1.10;;;;;;;;;;5092912;28;20032;-43
2022/01/29 04:49:57;;;;;;;1.75;1.08;;;;;;;;;;5092904;28;20028;-43
2022/01/29 04:52:23;;;;;;;1.25;1.15;;;;;;;;;;5092804;28;20028;-43
2022/01/29 04:54:49;;;;;;;3.83;1.20;;;;;;;;;;5092856;28;20058;-43
2022/01/29 04:57:15;;;;;;;1.15;1.00;;;;;;;;;;5092808;28;20039;-46
2022/01/29 04:59:41;;;;;;;0.90;0.90;;;;;;;;;;5092946;28;20028;-47
2022/01/29 05:02:07;;;;;;;3.80;1.20;;;;;;;;;;5092631;28;20030;-46
2022/01/29 05:04:33;;;;;;;2.47;1.20;;;;;;;;;;5092547;28;20048;-46
2022/01/29 05:06:59;;;;;;;2.10;1.10;;;;;;;;;;5092484;28;20042;-46
2022/01/29 05:09:25;;;;;;;1.13;1.02;;;;;;;;;;5092136;28;20032;-47
2022/01/29 05:11:53;;;;;;;2.42;1.63;;;;;;;;;;5092627;28;20030;-46
2022/01/29 05:14:33;;;;;;;2.05;0.95;;;;;;;;;;5092760;28;20028;-46
2022/01/29 05:27:54;;;;;;;3.78;0.98;;;;;;;;;;5092808;28;20055;-46
2022/01/29 05:30:20;;;;;;;2.28;1.20;;;;;;;;;;5092397;28;20466;-47
2022/01/29 05:32:46;;;;;;;3.28;1.10;;;;;;;;;;5092598;28;20032;-47
2022/01/29 05:35:12;;;;;;;5.18;1.30;;;;;;;;;;5092421;28;20383;-47
2022/01/29 05:37:38;;;;;;;2.58;1.00;;;;;;;;;;5092396;28;20172;-47
2022/01/29 05:40:04;;;;;;;2.65;1.60;;;;;;;;;;5092281;28;20039;-46
2022/01/29 05:42:30;;;;;;;2.10;1.13;;;;;;;;;;5092264;28;20028;-47
2022/01/29 05:44:56;;;;;;;3.03;0.90;;;;;;;;;;5092229;28;20097;-47
2022/01/29 05:47:22;;;;;;;2.15;1.05;;;;;;;;;;5092230;28;20035;-47
2022/01/29 05:49:48;;;;;;;1.40;1.08;;;;;;;;;;5092198;28;20020;-46
2022/01/29 05:52:14;;;;;;;1.73;0.90;;;;;;;;;;5092273;28;20028;-46
2022/01/29 05:54:40;;;;;;;1.73;1.10;;;;;;;;;;5092315;28;20399;-47
2022/01/29 05:57:06;;;;;;;2.15;0.95;;;;;;;;;;5092226;28;20020;-46
2022/01/29 05:59:35;;;;;;;1.20;0.80;;;;;;;;;;5092122;28;20031;-47
2022/01/29 06:02:01;;;;;;;1.50;0.80;;;;;;;;;;5092056;28;20028;-47
2022/01/29 06:04:27;;;;;;;2.17;1.23;;;;;;;;;;5091962;28;20393;-47
2022/01/29 06:06:53;;;;;;;2.63;1.00;;;;;;;;;;5092289;28;20493;-47
2022/01/29 06:09:19;;;;;;;1.20;0.80;;;;;;;;;;5092052;28;20028;-47
2022/01/29 06:11:44;;;;;;;2.50;0.90;;;;;;;;;;5092126;28;20102;-43
2022/01/29 06:14:12;;;;;;;1.85;0.52;;;;;;;;;;5092105;28;20024;-43
2022/01/29 06:16:38;;;;;;;2.00;0.80;;;;;;;;;;5091966;28;20028;-42
2022/01/29 06:19:04;;;;;;;2.45;1.08;;;;;;;;;;5092975;28;20027;-43
2022/01/29 06:21:30;;;;;;;1.67;1.08;;;;;;;;;;5095716;28;20398;-42
2022/01/29 06:23:58;;;;;;;2.03;0.63;;;;;;;;;;5095722;28;20034;-42
2022/01/29 06:26:24;;;;;;;2.33;0.90;;;;;;;;;;5095773;28;20035;-43
2022/01/29 06:28:50;;;;;;;3.15;1.40;;;;;;;;;;5095644;28;20024;-43
2022/01/29 06:31:15;;;;;;;2.63;0.80;;;;;;;;;;5096049;28;20028;-43
2022/01/29 06:33:41;;;;;;;1.95;0.77;;;;;;;;;;5095512;28;20490;-43
2022/01/29 06:36:07;;;;;;;2.13;0.50;;;;;;;;;;5095475;28;20024;-42
2022/01/29 06:38:34;;;;;;;2.28;0.68;;;;;;;;;;5095426;28;20024;-43
2022/01/29 06:41:00;;;;;;;2.35;0.70;;;;;;;;;;5095386;28;20035;-42
2022/01/29 06:43:27;;;;;;;1.63;0.65;;;;;;;;;;5095356;28;20470;-42
2022/01/29 06:45:53;;;;;;;1.05;0.52;;;;;;;;;;5095474;28;20050;-42
2022/01/29 06:48:19;;;;;;;1.80;0.55;;;;;;;;;;5095225;28;20104;-43
2022/01/29 06:50:45;;;;;;;2.97;0.77;;;;;;;;;;5095214;28;20470;-42
2022/01/29 06:53:11;;;;;;;2.55;0.60;;;;;;;;;;5095097;28;20020;-43
2022/01/29 06:55:37;;;;;;;1.33;0.60;;;;;;;;;;5095250;28;20031;-42
2022/01/29 06:58:03;;;;;;;2.05;0.65;;;;;;;;;;5094991;28;20479;-43
2022/01/29 07:00:29;;;;;;;2.65;0.80;;;;;;;;;;5094885;28;20024;-43
2022/01/29 07:02:55;;;;;;;2.50;0.90;;;;;;;;;;5094648;28;20084;-42
2022/01/29 07:05:21;;;;;;;2.97;1.17;;;;;;;;;;5094844;28;20043;-43
2022/01/29 07:07:47;;;;;;;1.10;0.60;;;;;;;;;;5094741;28;20028;-43
2022/01/29 07:10:13;;;;;;;2.80;0.63;;;;;;;;;;5094832;28;20150;-43
2022/01/29 07:12:40;;;;;;;1.73;0.50;;;15.90;92.10;;;;;;5094639;28;20402;-43
2022/01/29 07:15:07;;;;;;;3.60;0.55;;;;;;;;;;5094970;28;20020;-43
2022/01/29 07:17:33;;;;;;;1.85;0.75;;;;;;;;;;5094657;28;20035;-43
2022/01/29 07:19:59;;;;;;;2.70;0.60;;;;;;;;;;5094606;28;20020;-44
2022/01/29 07:22:25;;;;;;;4.30;0.77;;;;;;;;;;5094581;28;20470;-43
2022/01/29 07:24:51;;;;;;;23.17;1.02;;;;;;;;;;5094473;28;20462;-44
2022/01/29 07:27:17;;;;;;;2.80;0.60;;;;;;;;;;5094525;28;20024;-43
2022/01/29 07:29:43;;;;;;;3.78;0.70;;;;;;;;;;5094423;28;20047;-43
2022/01/29 07:32:09;;;;;;;3.33;1.25;;;;;;;;;;5093825;28;20040;-43
2022/01/29 07:34:35;;;;;;;3.45;0.70;;;;;;;;;;5094583;28;20017;-43
2022/01/29 07:37:01;;;;;;;2.65;0.68;;;;;;;;;;5094243;28;20399;-43
2022/01/29 07:39:28;;;;;;;3.75;0.60;;;;;;;;;;5094263;28;20035;-43
2022/01/29 07:41:54;;;;;;;2.92;0.98;;;;;;;;;;5094495;28;20039;-43
2022/01/29 07:44:20;;;;;;;4.85;1.05;;;;;;;;;;5094226;28;20047;-44
2022/01/29 07:46:46;;;;;;;2.78;1.23;;;;;;;;;;5093941;28;20043;-43
2022/01/29 07:49:12;;;;;;;2.78;0.90;;;;;;;;;;5094044;28;20065;-44
2022/01/29 07:51:38;;;;;;;3.58;0.80;;;;;;;;;;5093999;28;20103;-43
2022/01/29 07:54:04;;;;;;;4.03;0.50;;;;;;;;;;5093956;28;20485;-43
2022/01/29 07:56:30;;;;;;;2.00;0.75;;;;;;;;;;5093957;28;20027;-44
2022/01/29 07:58:56;;;;;;;2.33;0.80;;;;;;;;;;5093844;28;20394;-44
2022/01/29 08:01:22;;;;;;;3.58;0.60;;;;;;;;;;5093844;28;20032;-48
2022/01/29 08:03:50;;;;;;;2.80;0.70;;;;;;;;;;5093636;28;20093;-43
2022/01/29 08:06:17;;;;;;;3.33;1.05;;;;;;;;;;5093728;28;20028;-44
2022/01/29 08:08:43;;;;;;;3.55;1.00;;;;;;;;;;5093751;28;20028;-43
2022/01/29 08:11:10;;;;;;;3.17;0.90;;;15.60;92.70;;;;;;5093632;28;20466;-43
2022/01/29 08:13:36;;;;;;;4.40;1.10;;;;;;;;;;5093554;28;20024;-44
2022/01/29 08:16:03;;;;;;;3.13;0.70;;;;;;;;;;5093498;28;20038;-44
2022/01/29 08:18:29;;;;;;;3.60;0.88;;;;;;;;;;5093503;28;20020;-43
2022/01/29 08:20:55;;;;;;;2.92;0.80;;;;;;;;;;5093704;28;20031;-47
2022/01/29 08:23:20;;;;;;;4.40;0.85;;;;;;;;;;5093391;28;20099;-47
2022/01/29 08:25:46;;;;;;;4.45;0.93;;;;;;;;;;5093537;28;20032;-46
2022/01/29 08:28:13;;;;;;;5.72;1.38;;;;;;;;;;5093347;28;20228;-48
2022/01/29 08:30:39;;;;;;;4.32;0.90;;;;;;;;;;5093095;28;20518;-46
2022/01/29 08:33:08;;;;;;;2.97;1.02;;;;;;;;;;5092862;28;20069;-48
2022/01/29 08:35:34;;;;;;;3.10;0.80;;;;;;;;;;5092914;28;20036;-48
2022/01/29 08:38:00;;;;;;;2.75;0.82;;;;;;;;;;5093015;28;20039;-45
2022/01/29 08:40:26;;;;;;;6.45;1.05;;;;;;;;;;5093120;28;20035;-44
2022/01/29 08:42:53;;;;;;;9.57;1.60;;;;;;;;;;5092072;28;20028;-43
2022/01/29 08:45:19;;;;;;;8.07;1.13;;;15.40;91.60;;;;;;5092918;28;20043;-44
2022/01/29 08:47:45;;;;;;;6.88;1.42;;;;;;;;;;5092869;28;20039;-44
2022/01/29 08:50:11;;;;;;;7.30;1.35;;;;;;;;;;5092826;28;20102;-43
2022/01/29 08:52:38;;;;;;;6.25;1.17;;;15.60;92.60;;;;;;5092869;28;20028;-43
2022/01/29 08:55:06;;;;;;;4.70;0.88;;;15.70;92.60;;;;;;5092795;28;20059;-44
2022/01/29 08:57:32;;;;;;;4.10;0.90;;;;;;;;;;5092713;28;20467;-48
2022/01/29 08:59:58;;;;;;;3.38;0.70;;;;;;;;;;5092689;28;20421;-46
2022/01/29 09:02:24;;;;;;;5.68;1.08;;;;;;;;;;5092447;28;20081;-47
2022/01/29 09:04:52;;;;;;;3.30;0.70;;;;;;;;;;5092461;28;20472;-46
2022/01/29 09:07:18;;;;;;;4.68;1.25;;;;;;;;;;5092746;28;19973;-46
2022/01/29 09:09:45;;;;;;;4.70;1.20;;;;;;;;;;5092862;28;20024;-46
2022/01/29 09:12:12;;;;;;;5.78;0.90;;;16.20;92.40;;;;;;5092536;28;20360;-48
2022/01/29 09:14:38;;;;;;;4.50;0.80;;;;;;;;;;5092535;28;20035;-48
2022/01/29 09:17:05;;;;;;;4.05;0.80;;;;;;;;;;5092865;28;20382;-48
2022/01/29 09:19:31;;;;;;;5.13;0.73;;;;;;;;;;5092467;28;20039;-48
2022/01/29 09:21:57;;;;;;;6.47;0.90;;;;;;;;;;5092438;28;20028;-47
2022/01/29 09:24:23;;;;;;;4.53;0.90;;;;;;;;;;5092424;28;20031;-48
2022/01/29 09:26:49;;;;;;;2.00;0.60;;;;;;;;;;5092347;28;20112;-47
2022/01/29 09:29:15;;;;;;;3.38;1.05;;;;;;;;;;5092365;28;20505;-47
2022/01/29 09:31:41;;;;;;;3.47;0.88;;;;;;;;;;5092310;28;20036;-47
2022/01/29 09:34:07;;;;;;;5.18;0.60;;;;;;;;;;5092414;28;20020;-45
2022/01/29 09:36:33;;;;;;;3.13;0.73;;;;;;;;;;5092379;28;20024;-44
2022/01/29 09:38:59;;;;;;;3.17;0.80;;;;;;;;;;5092286;28;20391;-46
2022/01/29 09:41:27;;;;;;;7.20;1.02;;;17.40;91.40;;;;;;5092203;28;20028;-46
2022/01/29 09:43:54;;;;;;;3.25;0.68;;;17.60;91.30;;;;;;5092132;28;20493;-46
2022/01/29 09:46:20;;;;;;;2.13;0.57;;;;;;;;;;5092121;28;20123;-46
2022/01/29 09:48:46;;;;;;;2.70;0.60;;;;;;;;;;5092196;28;20081;-45
2022/01/29 09:51:13;;;;;;;1.65;0.50;;;;;;;;;;5092419;28;20028;-45
2022/01/29 09:53:42;;;;;;;2.65;0.73;;;17.80;91.10;;;;;;5092603;28;20028;-46
2022/01/29 09:56:09;;;;;;;2.47;0.60;;;;;;;;;;5096195;28;20504;-45
2022/01/29 09:58:35;;;;;;;1.83;0.50;;;;;;;;;;5096192;28;20103;-45
2022/01/29 10:01:00;;;;;;;4.07;0.70;;;;;;;;;;5096186;28;20051;-45
2022/01/29 10:03:27;;;;;;;3.53;0.80;;;;;;;;;;5095899;28;20039;-45
2022/01/29 10:05:54;;;;;;;2.67;0.55;;;17.90;91.00;;;;;;5096118;28;20042;-45
2022/01/29 10:08:21;;;;;;;3.67;0.65;;;17.90;90.30;;;;;;5096019;28;20138;-46
2022/01/29 10:10:52;;;;;;;2.80;0.52;;;18.00;91.00;;;;;;5096002;28;20032;-45
2022/01/29 10:13:38;;;;;;;1.20;0.77;;;17.80;85.70;;;;;;5095997;28;20032;-45
2022/01/29 10:16:12;;;;;;;7.30;0.98;;;17.80;85.70;;;;;;5095853;28;20169;-45
2022/01/29 10:18:40;;;;;;;2.17;0.57;;;17.80;88.80;;;;;;5095705;28;20466;-45
2022/01/29 10:21:16;;;;;;;1.95;0.70;;;17.80;86.40;;;;;;5095768;28;20054;-46
2022/01/29 10:23:42;;;;;;;1.58;0.43;;;;;;;;;;5095650;28;20017;-44
2022/01/29 10:26:10;;;;;;;1.35;0.50;;;17.80;91.20;;;;;;5095519;28;20032;-44
2022/01/29 10:28:36;;;;;;;3.65;0.82;;;;;;;;;;5095834;28;20421;-45
2022/01/29 10:31:05;;;;;;;1.15;0.32;;;17.80;91.20;;;;;;5095660;28;20039;-48
2022/01/29 10:33:33;;;;;;;3.55;0.82;;;17.70;90.90;;;;;;5095412;28;20024;-47
2022/01/29 10:36:05;;;;;;;3.22;0.60;;;17.70;90.90;;;;;;5095649;28;20036;-47
2022/01/29 10:38:39;;;;;;;3.85;0.60;;;17.70;85.40;;;;;;5095421;28;20471;-46
2022/01/29 10:41:41;;;;;;;2.03;0.52;;;17.70;91.20;;;;;;5095328;28;20032;-48
2022/01/29 10:44:18;;;;;;;2.78;1.02;;;17.70;86.20;;;;;;5013059;28;20061;-46
2022/01/29 10:46:50;;;;;;;1.88;0.50;;;17.70;91.10;;;;;;5085313;28;20058;-47
2022/01/29 10:49:35;;;;;;;2.05;0.50;;;17.70;91.40;;;;;;5095461;28;20016;-44
2022/01/29 10:52:01;;;;;;;1.95;0.60;;;;;;;;;;5095190;28;20027;-45
2022/01/29 10:54:27;;;;;;;2.15;0.70;;;;;;;;;;5095087;28;20032;-46
2022/01/29 10:57:00;;;;;;;6.45;0.77;;;17.60;86.20;;;;;;5095069;28;20382;-44
2022/01/29 10:59:28;;;;;;;2.88;0.80;;;17.60;91.10;;;;;;5095045;28;20107;-46
2022/01/29 11:02:09;;;;;;;2.28;0.52;;;17.60;85.90;;;;;;5094846;28;20081;-45
2022/01/29 11:04:37;;;;;;;1.95;0.70;;;17.60;91.10;;;;;;5094712;28;20096;-44
2022/01/29 11:07:06;;;;;;;2.58;0.73;;;;;;;;;;5094002;28;20097;-47
2022/01/29 11:09:33;;;;;;;1.50;0.60;;;;;;;;;;5095136;28;20070;-47
2022/01/29 11:12:03;;;;;;;4.10;0.63;;;17.60;91.30;;;;;;5095037;28;20103;-47
2022/01/29 11:14:29;;;;;;;4.25;0.85;;;;;;;;;;5094702;28;20081;-47
2022/01/29 11:16:55;;;;;;;1.50;0.65;;;;;;;;;;5094664;28;20107;-46
2022/01/29 11:19:21;;;;;;;2.13;0.52;;;;;;;;;;5094658;28;20039;-48
2022/01/29 11:21:51;;;;;;;2.53;0.65;;;17.50;91.20;;;;;;5094570;28;20028;-47
2022/01/29 11:24:18;;;;;;;2.08;0.30;;;17.50;91.30;;;;;;5094648;28;20028;-47
2022/01/29 11:26:45;;;;;;;1.45;0.60;;;;;;;;;;5094456;28;20478;-47
2022/01/29 11:29:31;;;;;;;2.53;0.80;;;17.50;86.70;;;;;;5094790;28;20028;-47
2022/01/29 11:32:21;;;;;;;3.05;0.70;;;17.40;86.60;;;;;;5094707;28;20031;-47
2022/01/29 11:35:07;;;;;;;1.65;0.45;;;17.40;86.70;;;;;;5094353;28;20478;-47
2022/01/29 11:37:37;;;;;;;1.20;0.47;;;;;;;;;;5094319;28;20020;-47
2022/01/29 11:40:23;;;;;;;1.38;0.30;;;17.50;86.90;;;;;;5094241;28;20521;-47
2022/01/29 11:43:09;;;;;;;1.13;0.40;;;17.40;87.00;;;;;;5094246;28;20479;-46
2022/01/29 11:45:44;;;;;;;3.00;0.50;;;17.40;91.40;;;;;;5094283;28;20300;-46
2022/01/29 11:48:33;;;;;;;4.20;0.90;;;17.40;86.70;;;;;;5094384;28;20047;-47
2022/01/29 11:51:09;;;;;;;1.73;0.55;;;17.40;86.90;;;;;;5093966;28;20028;-47
2022/01/29 11:53:44;;;;;;;2.42;0.43;;;19.40;88.10;;;;;;5093976;28;20028;-46
2022/01/29 11:56:29;;;;;;;2.28;0.60;;;17.30;86.60;;;;;;5093897;28;20024;-47
2022/01/29 11:59:30;;;;;;;2.35;0.70;;;17.30;86.80;;;;;;5093891;28;20028;-46
2022/01/29 12:02:23;;;;;;;1.13;0.40;;;17.20;91.30;;;;;;5093853;28;20028;-45
2022/01/29 12:04:53;;;;;;;5.60;0.70;;;;;;;;;;5093583;28;20047;-46
2022/01/29 12:07:42;;;;;;;1.73;0.73;;;17.20;91.40;;;;;;5094007;28;20428;-46
2022/01/29 12:10:14;;;;;;;1.40;0.50;;;17.20;86.60;;;;;;5093311;28;20059;-46
2022/01/29 12:12:44;;;;;;;2.20;0.60;;;17.20;91.50;;;;;;5093600;28;20474;-45
2022/01/29 12:15:09;;;;;;;;;;;17.10;91.80;;;;;;5094258;28;20016;-45
2022/01/29 12:17:45;;;;;;;2.75;0.68;;;17.10;87.10;;;;;;5093428;28;19957;-44
2022/01/29 12:20:13;;;;;;;2.50;0.70;;;17.10;91.60;;;;;;5093737;28;20066;-45
2022/01/29 12:22:41;;;;;;;3.00;0.70;;;17.10;91.40;;;;;;5093417;28;20028;-45
2022/01/29 12:25:10;;;;;;;1.73;0.57;;;17.00;91.40;;;;;;5093246;28;20027;-44
2022/01/29 12:27:47;;;;;;;1.65;0.50;;;17.00;87.10;;;;;;5093311;28;20063;-44
2022/01/29 12:30:19;;;;;;;0.75;0.45;;;17.00;91.50;;;;;;5093262;28;20108;-45
2022/01/29 12:33:06;;;;;;;2.60;0.70;;;16.90;87.30;;;;;;5093156;28;20099;-45
2022/01/29 12:35:37;;;;;;;1.48;0.43;;;16.90;86.40;;;;;;5093194;28;20086;-45
2022/01/29 12:38:08;;;;;;;4.00;0.70;;;16.90;91.40;;;;;;5093192;28;20046;-45
2022/01/29 12:40:39;;;;;;;3.72;0.85;;;;;;;;;;5093438;28;20020;-45
2022/01/29 12:43:22;;;;;;;1.75;0.60;;;16.90;91.60;;;;;;5093268;28;20103;-45
2022/01/29 12:45:49;;;;;;;2.70;0.60;;;16.80;90.00;;;;;;5092909;28;20039;-45
2022/01/29 12:48:16;;;;;;;2.65;0.75;;;16.70;89.80;;;;;;5093173;28;20024;-45
2022/01/29 12:50:43;;;;;;;1.80;0.50;;;;;;;;;;5093241;28;20016;-45
2022/01/29 12:53:16;;;;;;;2.50;0.60;;;16.70;91.30;;;;;;5092855;28;20179;-45
2022/01/29 12:55:41;;;;;;;1.38;0.50;;;;;;;;;;5093249;28;20475;-45
2022/01/29 12:58:08;;;;;;;1.67;0.40;;;;;;;;;;5092796;28;20028;-46
2022/01/29 13:00:35;;;;;;;2.72;0.63;;;16.60;91.40;;;;;;5092896;28;20436;-45
2022/01/29 13:03:09;;;;;;;1.40;0.80;;;16.60;87.10;;;;;;5091216;28;20020;-45
2022/01/29 13:05:42;;;;;;;1.80;0.50;;;16.60;87.30;;;;;;5092531;28;20110;-44
2022/01/29 13:08:09;;;;;;;1.40;0.57;;;;;;;;;;5092921;28;20069;-45
2022/01/29 13:10:35;;;;;;;1.55;0.68;;;;;;;;;;5092607;28;20127;-44
2022/01/29 13:13:02;;;;;;;5.75;0.90;;;;;;;;;;5092596;28;20386;-45
2022/01/29 13:15:40;;;;;;;2.88;0.77;;;16.50;91.40;;;;;;5092639;28;20024;-46
2022/01/29 13:18:07;;;;;;;2.53;0.60;;;16.70;91.30;;;;;;5092726;28;20067;-44
2022/01/29 13:20:34;;;;;;;1.42;0.55;;;16.70;89.30;;;;;;5092742;28;20108;-45
2022/01/29 13:23:00;;;;;;;1.35;0.50;;;;;;;;;;5091050;28;20501;-45
2022/01/29 13:25:29;;;;;;;2.50;0.90;;;16.80;90.40;;;;;;5092280;28;20036;-44
2022/01/29 13:28:12;;;;;;;1.25;0.60;;;16.90;85.90;;;;;;5092666;28;20132;-45
2022/01/29 13:30:38;;;;;;;2.03;0.98;;;;;;;;;;5092161;28;20395;-44
2022/01/29 13:33:18;;;;;;;1.98;0.60;;;17.00;85.80;;;;;;5092416;28;20032;-45
2022/01/29 13:35:49;;;;;;;2.47;0.75;;;17.10;86.00;;;;;;5092416;28;20036;-46
2022/01/29 13:38:34;;;;;;;3.10;0.60;;;17.30;86.20;;;;;;5092433;28;20024;-46
2022/01/29 13:41:03;;;;;;;1.17;0.60;;;17.40;90.80;;;;;;5092979;28;20016;-45
2022/01/29 13:43:33;;;;;;;3.27;0.80;;;17.40;91.00;;;;;;5092361;28;20021;-46
2022/01/29 13:46:01;;;;;;;1.70;0.63;;;17.40;91.00;;;;;;5092280;28;20416;-47
2022/01/29 13:48:28;;;;;;;3.17;0.52;;;;;;;;;;5092435;28;20020;-46
2022/01/29 13:51:00;;;;;;;0.75;0.30;;;17.60;85.40;;;;;;5092506;28;20119;-45
2022/01/29 13:53:28;;;;;;;2.95;0.40;;;;;;;;;;5092039;28;20478;-47
2022/01/29 13:56:03;;;;;;;1.17;0.47;;;17.50;85.40;;;;;;5091991;28;20028;-46
2022/01/29 13:58:49;;;;;;;2.28;0.68;;;17.50;85.70;;;;;;5092027;28;20058;-46
2022/01/29 14:01:32;;;;;;;0.82;0.50;;;17.40;91.00;;;;;;5092220;28;20488;-45
2022/01/29 14:03:58;;;;;;;0.93;0.38;;;;;;;;;;5091786;28;20563;-46
2022/01/29 14:06:47;;;;;;;2.92;0.52;;;;;;;;;;5091827;28;20047;-48
2022/01/29 14:09:24;;;;;;;3.45;0.77;;;17.40;86.20;;;;;;5092175;28;20027;-46
2022/01/29 14:11:59;;;;;;;1.45;0.43;;;17.40;86.00;;;;;;5092095;28;20035;-46
2022/01/29 14:14:44;;;;;;;2.90;0.80;;;17.30;91.20;;;;;;5092014;28;20024;-47
2022/01/29 14:17:11;;;;;;;2.72;0.73;;;17.40;91.20;;;;;;5092097;28;20150;-47
2022/01/29 14:19:39;;;;;;;3.30;0.57;;;17.40;91.30;;;;;;5092166;28;20387;-47
2022/01/29 14:22:07;;;;;;;1.38;0.43;;;17.40;91.20;;;;;;5092011;28;20016;-47
2022/01/29 14:24:33;;;;;;;2.33;0.50;;;;;;;;;;5092111;28;20120;-46
2022/01/29 14:26:59;;;;;;;3.80;0.90;;;;;;;;;;5091816;28;20035;-46